createdAt,value
2023-03-22T00:00:28.050Z,53.83
2023-03-22T00:02:57.110Z,53.61
2023-03-22T00:05:24.518Z,53.70
2023-03-22T00:07:54.402Z,53.65
2023-03-22T00:10:21.623Z,53.93
2023-03-22T00:12:51.746Z,53.79
2023-03-22T00:15:19.941Z,54.11
2023-03-22T00:17:47.237Z,53.67
2023-03-22T00:20:14.406Z,53.71
2023-03-22T00:22:41.624Z,53.59
2023-03-22T00:25:09.184Z,53.73
2023-03-22T00:27:36.564Z,53.67
2023-03-22T00:30:05.885Z,53.71
2023-03-22T00:32:37.628Z,53.81
2023-03-22T00:35:06.092Z,53.97
2023-03-22T00:37:34.208Z,53.58
2023-03-22T00:40:01.726Z,53.84
2023-03-22T00:42:31.639Z,53.78
2023-03-22T00:44:58.822Z,53.75
2023-03-22T00:47:29.192Z,53.88
2023-03-22T00:50:00.266Z,53.69
2023-03-22T00:52:28.991Z,53.83
2023-03-22T00:54:57.448Z,53.94
2023-03-22T00:57:24.808Z,53.74
2023-03-22T00:59:54.066Z,54.07
2023-03-22T01:02:29.825Z,53.85
2023-03-22T01:05:00.060Z,54.20
2023-03-22T01:07:33.250Z,54.51
2023-03-22T01:10:04.583Z,54.29
2023-03-22T01:12:32.198Z,54.40
2023-03-22T01:14:59.320Z,54.46
2023-03-22T01:17:26.629Z,54.63
2023-03-22T01:19:54.020Z,54.45
2023-03-22T01:22:22.282Z,54.43
2023-03-22T01:24:50.499Z,54.56
2023-03-22T01:27:23.003Z,54.67
2023-03-22T01:29:51.006Z,54.49
2023-03-22T01:32:19.028Z,54.74
2023-03-22T01:34:49.246Z,54.55
2023-03-22T01:37:18.709Z,54.65
2023-03-22T01:39:49.625Z,54.10
2023-03-22T01:42:18.415Z,54.50
2023-03-22T01:45:15.149Z,54.97
2023-03-22T01:47:58.073Z,55.14
2023-03-22T01:50:26.475Z,54.79
2023-03-22T01:52:56.050Z,54.98
2023-03-22T01:55:33.801Z,54.79
2023-03-22T01:58:18.351Z,55.02
2023-03-22T02:00:59.781Z,54.83
2023-03-22T02:03:54.131Z,55.15
2023-03-22T02:06:30.136Z,55.15
2023-03-22T02:09:13.269Z,54.99
2023-03-22T02:11:59.054Z,54.94
2023-03-22T02:15:18.952Z,55.42
2023-03-22T02:18:21.342Z,55.17
2023-03-22T02:21:25.413Z,55.53
2023-03-22T02:24:17.483Z,55.48
2023-03-22T02:27:27.263Z,55.83
2023-03-22T02:30:27.886Z,55.57
2023-03-22T02:33:31.262Z,55.80
2023-03-22T02:36:19.197Z,55.80
2023-03-22T02:39:11.976Z,55.59
2023-03-22T02:41:47.023Z,55.54
2023-03-22T02:44:36.236Z,55.97
2023-03-22T02:47:42.467Z,55.88
2023-03-22T02:50:50.006Z,56.01
2023-03-22T02:53:40.972Z,56.15
2023-03-22T02:56:21.511Z,55.65
2023-03-22T02:59:00.042Z,56.05
2023-03-22T03:01:55.333Z,56.14
2023-03-22T03:04:28.991Z,55.96
2023-03-22T03:07:04.863Z,55.81
2023-03-22T03:09:33.741Z,55.66
2023-03-22T03:12:00.878Z,55.87
2023-03-22T03:14:31.054Z,55.96
2023-03-22T03:17:25.271Z,56.44
2023-03-22T03:20:08.317Z,56.31
2023-03-22T03:22:50.727Z,56.49
2023-03-22T03:25:33.200Z,56.18
2023-03-22T03:28:11.692Z,56.18
2023-03-22T03:31:03.891Z,56.24
2023-03-22T03:33:36.172Z,56.16
2023-03-22T03:36:10.883Z,56.19
2023-03-22T03:38:44.839Z,56.24
2023-03-22T03:41:16.637Z,56.16
2023-03-22T03:43:46.293Z,56.07
2023-03-22T03:46:13.975Z,56.10
2023-03-22T03:48:48.437Z,56.34
2023-03-22T03:51:15.657Z,56.10
2023-03-22T03:53:43.058Z,56.18
2023-03-22T03:56:11.267Z,55.97
2023-03-22T03:58:43.503Z,55.84
2023-03-22T04:01:11.190Z,55.98
2023-03-22T04:03:38.302Z,55.77
2023-03-22T04:06:28.103Z,55.84
2023-03-22T04:09:02.003Z,55.87
2023-03-22T04:11:33.079Z,55.85
2023-03-22T04:14:02.697Z,55.89
2023-03-22T04:16:29.985Z,56.13
2023-03-22T04:18:57.258Z,56.14
2023-03-22T04:21:24.515Z,56.40
2023-03-22T04:24:00.734Z,56.29
2023-03-22T04:26:31.305Z,55.97
2023-03-22T04:29:35.045Z,56.01
2023-03-22T04:32:24.807Z,56.39
2023-03-22T04:34:53.543Z,55.92
2023-03-22T04:37:31.747Z,56.43
2023-03-22T04:40:16.707Z,56.44
2023-03-22T04:43:04.333Z,56.23
2023-03-22T04:45:46.496Z,56.97
2023-03-22T04:48:22.350Z,56.58
2023-03-22T04:50:53.568Z,56.98
2023-03-22T04:53:27.625Z,56.67
2023-03-22T04:56:00.036Z,56.71
2023-03-22T04:58:30.598Z,56.70
2023-03-22T05:00:58.741Z,56.66
2023-03-22T05:03:26.418Z,56.92
2023-03-22T05:05:56.985Z,56.87
2023-03-22T05:08:31.092Z,56.96
2023-03-22T05:11:04.546Z,56.87
2023-03-22T05:13:31.857Z,57.08
2023-03-22T05:15:59.971Z,56.72
2023-03-22T05:18:45.683Z,56.76
2023-03-22T05:21:22.262Z,56.66
2023-03-22T05:23:56.752Z,56.89
2023-03-22T05:26:26.407Z,56.72
2023-03-22T05:28:55.972Z,56.47
2023-03-22T05:31:38.668Z,56.94
2023-03-22T05:34:08.236Z,56.90
2023-03-22T05:36:37.747Z,56.56
2023-03-22T05:39:28.212Z,57.10
2023-03-22T05:42:01.824Z,56.52
2023-03-22T05:44:31.383Z,56.44
2023-03-22T05:47:12.166Z,56.64
2023-03-22T05:49:48.731Z,56.35
2023-03-22T05:52:16.429Z,56.37
2023-03-22T05:54:54.618Z,56.19
2023-03-22T05:57:25.139Z,56.00
2023-03-22T05:59:54.658Z,55.98
2023-03-22T06:02:28.704Z,56.02
2023-03-22T06:04:57.329Z,56.16
2023-03-22T06:07:32.592Z,55.74
2023-03-22T06:10:16.309Z,55.84
2023-03-22T06:12:44.020Z,55.77
2023-03-22T06:15:17.303Z,55.58
2023-03-22T06:17:56.338Z,55.86
2023-03-22T06:20:27.561Z,56.08
2023-03-22T06:23:04.087Z,56.01
2023-03-22T06:25:33.126Z,55.80
2023-03-22T06:28:03.881Z,55.67
2023-03-22T06:30:31.652Z,55.80
2023-03-22T06:33:17.531Z,56.09
2023-03-22T06:35:54.729Z,56.36
2023-03-22T06:38:34.164Z,56.47
2023-03-22T06:41:04.161Z,56.39
2023-03-22T06:43:31.428Z,56.75
2023-03-22T06:46:10.724Z,56.07
2023-03-22T06:48:46.093Z,56.19
2023-03-22T06:51:18.408Z,55.97
2023-03-22T06:53:46.590Z,55.46
2023-03-22T06:56:16.084Z,55.30
2023-03-22T06:58:52.057Z,55.27
2023-03-22T07:01:19.656Z,55.11
2023-03-22T07:03:47.533Z,54.66
2023-03-22T07:06:17.012Z,55.27
2023-03-22T07:08:50.827Z,54.86
2023-03-22T07:11:25.502Z,54.64
2023-03-22T07:13:58.380Z,54.88
2023-03-22T07:16:28.990Z,54.66
2023-03-22T07:18:59.421Z,54.59
2023-03-22T07:21:26.602Z,54.80
2023-03-22T07:24:02.166Z,54.57
2023-03-22T07:26:31.955Z,54.27
2023-03-22T07:29:00.282Z,54.86
2023-03-22T07:31:31.746Z,54.59
2023-03-22T07:34:01.814Z,54.58
2023-03-22T07:36:32.822Z,54.31
2023-03-22T07:39:00.491Z,54.06
2023-03-22T07:41:34.710Z,54.06
2023-03-22T07:44:40.360Z,53.94
2023-03-22T07:47:40.308Z,53.83
2023-03-22T07:50:28.218Z,54.27
2023-03-22T07:52:57.438Z,53.93
2023-03-22T07:55:24.717Z,53.38
2023-03-22T07:57:51.967Z,53.60
2023-03-22T08:00:20.147Z,53.13
2023-03-22T08:02:58.225Z,53.06
2023-03-22T08:05:45.701Z,52.89
2023-03-22T08:08:15.036Z,52.88
2023-03-22T08:10:42.237Z,52.68
2023-03-22T08:13:09.693Z,52.77
2023-03-22T08:15:39.041Z,52.34
2023-03-22T08:18:11.037Z,52.10
2023-03-22T08:20:40.756Z,51.92
2023-03-22T08:23:16.368Z,51.11
2023-03-22T08:26:22.435Z,51.03
2023-03-22T08:28:52.530Z,50.46
2023-03-22T08:31:20.347Z,49.58
2023-03-22T08:33:47.907Z,49.03
2023-03-22T08:36:23.055Z,47.71
2023-03-22T08:39:00.983Z,47.19
2023-03-22T08:41:41.795Z,45.49
2023-03-22T08:44:10.321Z,46.18
2023-03-22T08:46:37.356Z,45.75
2023-03-22T08:49:04.703Z,45.41
2023-03-22T08:51:36.133Z,45.22
2023-03-22T08:54:15.900Z,44.57
2023-03-22T08:57:09.730Z,44.31
2023-03-22T08:59:57.980Z,44.00
2023-03-22T09:02:44.571Z,43.22
2023-03-22T09:05:13.677Z,42.75
2023-03-22T09:07:42.561Z,42.38
2023-03-22T09:10:18.386Z,41.58
2023-03-22T09:12:48.072Z,41.25
2023-03-22T09:15:15.588Z,41.11
2023-03-22T09:17:46.916Z,39.83
2023-03-22T09:20:14.861Z,40.59
2023-03-22T09:22:44.113Z,40.30
2023-03-22T09:25:14.039Z,39.88
2023-03-22T09:27:43.996Z,39.65
2023-03-22T09:30:11.737Z,40.18
2023-03-22T09:32:39.710Z,39.05
2023-03-22T09:35:07.257Z,39.49
2023-03-22T09:37:45.868Z,38.92
2023-03-22T09:40:17.790Z,38.26
2023-03-22T09:42:50.044Z,37.47
2023-03-22T09:45:30.872Z,37.29
2023-03-22T09:47:59.895Z,36.68
2023-03-22T09:50:31.572Z,36.55
2023-03-22T09:53:01.990Z,35.53
2023-03-22T09:55:43.697Z,35.78
2023-03-22T09:58:24.346Z,38.20
2023-03-22T10:01:03.330Z,37.55
2023-03-22T10:03:33.980Z,37.48
2023-03-22T10:06:09.313Z,37.23
2023-03-22T10:09:14.171Z,36.29
2023-03-22T10:11:55.952Z,36.68
2023-03-22T10:14:45.603Z,36.21
2023-03-22T10:17:17.820Z,36.61
2023-03-22T10:19:51.125Z,36.89
2023-03-22T10:22:25.266Z,37.29
2023-03-22T10:24:58.249Z,37.94
2023-03-22T10:27:27.062Z,36.98
2023-03-22T10:29:56.930Z,37.58
2023-03-22T10:32:51.245Z,37.56
2023-03-22T10:35:23.869Z,38.42
2023-03-22T10:37:52.994Z,38.52
2023-03-22T10:40:27.305Z,38.05
2023-03-22T10:43:03.476Z,37.64
2023-03-22T10:45:34.096Z,38.99
2023-03-22T10:48:06.239Z,38.37
2023-03-22T10:50:37.073Z,39.39
2023-03-22T10:53:06.468Z,39.31
2023-03-22T10:55:39.343Z,39.60
2023-03-22T10:58:14.056Z,38.54
2023-03-22T11:01:05.051Z,37.92
2023-03-22T11:03:35.259Z,37.74
2023-03-22T11:06:07.641Z,38.25
2023-03-22T11:08:57.320Z,38.58
2023-03-22T11:11:32.727Z,39.04
2023-03-22T11:14:02.339Z,38.25
2023-03-22T11:16:31.907Z,38.79
2023-03-22T11:19:02.224Z,38.44
2023-03-22T11:21:33.587Z,37.98
2023-03-22T11:24:05.954Z,38.64
2023-03-22T11:26:45.311Z,37.94
2023-03-22T11:29:19.518Z,38.53
2023-03-22T11:31:56.094Z,37.72
2023-03-22T11:34:28.995Z,37.55
2023-03-22T11:37:02.125Z,37.65
2023-03-22T11:39:30.402Z,37.35
2023-03-22T11:42:01.711Z,37.60
2023-03-22T11:44:34.797Z,37.43
2023-03-22T11:47:04.590Z,38.15
2023-03-22T11:49:52.549Z,37.35
2023-03-22T11:52:24.498Z,37.41
2023-03-22T11:54:53.018Z,37.35
2023-03-22T11:57:34.207Z,37.85
2023-03-22T12:00:10.772Z,37.96
2023-03-22T12:02:52.604Z,38.23
2023-03-22T12:05:32.659Z,37.79
2023-03-22T12:08:02.173Z,37.85
2023-03-22T12:10:33.923Z,37.66
2023-03-22T12:13:07.482Z,38.14
2023-03-22T12:15:49.454Z,37.81
2023-03-22T12:18:24.665Z,37.15
2023-03-22T12:20:57.631Z,36.86
2023-03-22T12:23:27.596Z,37.39
2023-03-22T12:26:01.280Z,36.79
2023-03-22T12:28:50.223Z,37.22
2023-03-22T12:31:23.457Z,37.92
2023-03-22T12:34:16.480Z,37.49
2023-03-22T12:36:53.729Z,37.69
2023-03-22T12:39:30.359Z,37.35
2023-03-22T12:42:06.739Z,37.21
2023-03-22T12:44:37.894Z,37.56
2023-03-22T12:47:13.500Z,37.75
2023-03-22T12:49:52.129Z,37.79
2023-03-22T12:52:45.858Z,38.26
2023-03-22T12:55:33.338Z,37.65
2023-03-22T12:58:01.501Z,36.95
2023-03-22T13:00:53.937Z,36.73
2023-03-22T13:03:21.405Z,36.51
2023-03-22T13:05:50.472Z,35.85
2023-03-22T13:08:22.569Z,36.11
2023-03-22T13:11:01.819Z,37.51
2023-03-22T13:13:28.866Z,36.84
2023-03-22T13:15:56.031Z,37.90
2023-03-22T13:18:40.112Z,39.02
2023-03-22T13:21:26.777Z,38.94
2023-03-22T13:24:00.883Z,37.70
2023-03-22T13:26:47.914Z,37.75
2023-03-22T13:29:20.204Z,39.30
2023-03-22T13:31:58.521Z,38.25
2023-03-22T13:34:44.605Z,37.08
2023-03-22T13:37:30.424Z,39.65
2023-03-22T13:40:04.731Z,38.01
2023-03-22T13:42:39.134Z,37.79
2023-03-22T13:45:32.143Z,38.01
2023-03-22T13:48:28.863Z,38.11
2023-03-22T13:50:58.581Z,38.27
2023-03-22T13:53:30.977Z,37.21
2023-03-22T13:56:03.857Z,38.59
2023-03-22T13:58:36.464Z,37.31
2023-03-22T14:01:07.238Z,37.03
2023-03-22T14:03:42.491Z,36.21
2023-03-22T14:06:41.483Z,36.66
2023-03-22T14:09:21.278Z,37.72
2023-03-22T14:11:55.756Z,36.51
2023-03-22T14:14:31.397Z,36.98
2023-03-22T14:17:20.195Z,36.81
2023-03-22T14:19:49.109Z,37.84
